WETTERDATEN

GESTERN
Time Temp. Taup. r.Fe. Windrich Windstärke Windböe Druck 1h Prec. 24h Prec.
00:07 1.5 -4.4 62 234 0.3 0.6 1025.8 0.0000 0.0000
00:18 1.4 -4.5 62 270 0.3 0.6 1025.7 0.0000 0.0000
00:28 1.3 -4.6 62 173 0.3 0.6 1025.6 0.0000 0.0000
00:37 1.2 -4.7 62 230 0.3 0.6 1025.5 0.0000 0.0000
00:48 1.2 -4.5 63 237 0.3 0.6 1025.5 0.0000 0.0000
00:58 1.1 -4.6 63 225 0.3 0.6 1025.3 0.0000 0.0000
01:08 1.1 -4.6 63 235 0.3 0.6 1025.2 0.0000 0.0000
01:18 1.1 -4.6 63 234 0.3 0.6 1025.2 0.0000 0.0000
01:29 1 -4.6 63 206 0.3 0.6 1025.1 0.0000 0.0000
01:39 1 -4.6 63 225 0.3 0.6 1025 0.0000 0.0000
01:48 0.9 -4.7 63 236 0.3 0.6 1025 0.0000 0.0000
01:59 0.9 -4.7 63 239 0.3 0.6 1025 0.0000 0.0000
02:09 0.9 -4.7 63 236 0.3 0.6 1025 0.0000 0.0000
02:19 0.8 -4.8 63 270 0.3 0.8 1025.1 0.0000 0.0000
02:29 0.7 -4.9 63 219 0.3 0.6 1025 0.0000 0.0000
02:39 0.7 -4.7 64 235 0.3 0.6 1025 0.0000 0.0000
02:49 0.7 -4.7 64 230 0.3 0.6 1025 0.0000 0.0000
02:59 0.6 -4.8 64 225 0.3 0.6 1024.9 0.0000 0.0000
03:09 0.6 -4.8 64 236 0.3 0.6 1024.8 0.0000 0.0000
03:19 0.6 -4.8 64 225 0.3 0.6 1024.8 0.0000 0.0000
03:29 0.5 -4.9 64 225 0.3 0.8 1024.8 0.0000 0.0000
03:39 0.5 -4.9 64 234 0.3 0.6 1024.6 0.0000 0.0000
03:50 0.3 -5.1 64 218 0.3 0.6 1024.5 0.0000 0.0000
04:00 0.3 -5.1 64 210 0.3 0.6 1024.5 0.0000 0.0000
04:10 0.3 -4.9 65 234 0.3 0.6 1024.4 0.0000 0.0000
04:20 0.3 -4.9 65 270 0.3 0.8 1024.4 0.0000 0.0000
04:30 0.3 -4.9 65 225 0.3 0.6 1024.4 0.0000 0.0000
04:40 0.3 -4.9 65 219 0.3 0.6 1024.3 0.0000 0.0000
04:50 0.3 -4.9 65 270 0.3 0.6 1024.3 0.0000 0.0000
05:01 0.3 -4.9 65 240 0.3 0.6 1024.3 0.0000 0.0000
05:10 0.3 -4.7 66 229 0.3 0.6 1024.3 0.0000 0.0000
05:20 0.4 -4.6 66 237 0.3 0.6 1024.3 0.0000 0.0000
05:31 0.4 -4.8 65 270 0.3 0.6 1024.4 0.0000 0.0000
05:41 0.5 -4.5 66 218 0.3 0.6 1024.4 0.0000 0.0000
05:51 0.5 -4.7 65 230 0.3 0.6 1024.3 0.0000 0.0000
06:00 0.5 -4.5 66 225 0.3 0.6 1024.4 0.0000 0.0000
06:11 0.5 -4.5 66 225 0.3 0.6 1024.3 0.0000 0.0000
06:21 0.5 -4.5 66 239 0.3 0.6 1024.3 0.0000 0.0000
06:31 0.6 -4.4 66 234 0.3 0.6 1024.3 0.0000 0.0000
06:41 0.6 -4.4 66 230 0.3 0.6 1024.3 0.0000 0.0000
06:51 0.6 -4.6 65 219 0.3 0.6 1024.4 0.0000 0.0000
07:01 0.6 -4.4 66 233 0.3 0.8 1024.5 0.0000 0.0000
07:11 0.6 -4.4 66 270 0.3 0.6 1024.5 0.0000 0.0000
07:22 0.7 -4.4 66 230 0.3 0.6 1024.5 0.0000 0.0000
07:31 0.7 -4.4 66 239 0.3 0.6 1024.5 0.0000 0.0000
07:41 0.7 -4.4 66 225 0.3 0.6 1024.5 0.0000 0.0000
07:51 0.7 -4.4 66 233 0.3 0.6 1024.5 0.0000 0.0000
08:02 0.7 -4.4 66 235 0.3 0.6 1024.5 0.0000 0.0000
08:11 0.8 -4.1 67 237 0.3 0.6 1024.6 0.0000 0.0000
08:21 0.8 -4.3 66 240 0.3 0.6 1024.8 0.0000 0.0000
08:32 0.8 -4.3 66 270 0.3 0.6 1024.8 0.0000 0.0000
08:42 0.8 -4.1 67 230 0.3 0.6 1024.9 0.0000 0.0000
08:52 0.9 -4 67 270 0.3 0.6 1024.9 0.0000 0.0000
09:02 0.9 -4 67 212 0.3 0.6 1024.9 0.0000 0.0000
09:12 1 -3.7 68 0 0.3 1024.9 0.0000 0.0000
09:22 1 -3.9 67 239 0.3 0.8 1024.9 0.0000 0.0000
09:32 1.1 -4 66 270 0.3 0.6 1024.9 0.0000 0.0000
09:42 1.2 -3.6 68 218 0.3 0.6 1024.9 0.0000 0.0000
09:52 1.2 -3.6 68 218 0.3 0.6 1024.9 0.0000 0.0000
10:02 1.3 -3.7 67 239 0.3 0.6 1024.9 0.0000 0.0000
10:12 1.4 -3.4 68 225 0.3 0.6 1024.8 0.0000 0.0000
10:22 1.5 -3.5 67 270 0.3 0.8 1024.9 0.0000 0.0000
10:32 1.7 -3.5 66 270 0.3 0.6 1024.9 0.0000 0.0000
10:42 1.7 -3.5 66 270 0.3 0.8 1024.9 0.0000 0.0000
10:53 1.9 -3.5 65 244 0.6 0.8 1024.9 0.0000 0.0000
11:03 1.9 -3.7 64 239 0.3 0.6 1024.9 0.0000 0.0000
11:12 2.1 -3.5 64 270 0.3 0.8 1024.8 0.0000 0.0000
11:23 2.2 -3.3 65 140 0.3 0.6 1024.8 0.0000 0.0000
11:33 2.4 -3.1 65 270 0.6 0.8 1024.6 0.0000 0.0000
11:43 2.5 -3.6 62 270 0.6 0.8 1024.4 0.0000 0.0000
11:53 2.7 -3.4 62 225 0.3 0.6 1024.3 0.0000 0.0000
12:03 2.9 -3.2 62 270 0.3 0.8 1024.1 0.0000 0.0000
12:13 3.1 -3.1 62 254 0.6 0.8 1024 0.0000 0.0000
12:23 3.4 -3.2 60 270 0.6 1.4 1023.8 0.0000 0.0000
12:33 3.7 -2.8 61 253 0.6 1.4 1023.7 0.0000 0.0000
12:44 4 -2.7 60 270 0.8 2.2 1023.7 0.0000 0.0000
12:53 4.2 -2.5 60 270 1.4 1.9 1023.6 0.0000 0.0000
13:03 4.3 -2.5 60 270 0.8 1.7 1023.5 0.0000 0.0000
13:13 4.4 -2.4 60 270 0.8 1.7 1023.4 0.0000 0.0000
13:24 4.5 -2.5 59 270 0.8 1.7 1023.3 0.0000 0.0000
13:33 4.5 -2.7 58 281 0.8 1.7 1023.1 0.0000 0.0000
13:43 4.5 -2.7 58 270 0.6 1.4 1023 0.0000 0.0000
13:54 4.5 -2.5 59 270 0.6 1.4 1022.9 0.0000 0.0000
14:04 4.5 -2.5 59 270 0.6 1.4 1022.9 0.0000 0.0000
14:13 4.5 -2.3 60 235 0.3 0.8 1022.8 0.0000 0.0000
14:24 4.5 -2.3 60 232 0.3 0.6 1022.8 0.0000 0.0000
14:34 4.7 -2.3 59 270 0.6 1.7 1022.7 0.0000 0.0000
14:44 5.1 -2.2 58 270 0.6 1.9 1022.6 0.0000 0.0000
14:54 5.5 -2.3 56 270 0.3 1.4 1022.6 0.0000 0.0000
15:04 5.8 -2.2 55 270 0.6 1.7 1022.7 0.0000 0.0000
15:14 6 -2.3 54 270 0.6 1.7 1022.7 0.0000 0.0000
15:24 6.2 -2.4 53 270 0.8 1.9 1022.7 0.0000 0.0000
15:35 6.3 -2.3 53 270 0.6 1.4 1022.7 0.0000 0.0000
15:44 6.3 -2.3 53 270 0.6 1.4 1022.7 0.0000 0.0000
15:54 6.1 -2.4 53 217 0.3 0.6 1022.8 0.0000 0.0000
16:04 6.1 -2.2 54 167 0.3 0.6 1022.8 0.0000 0.0000
16:15 6.1 -2.4 53 270 0.6 1.4 1022.7 0.0000 0.0000
16:24 6 -2.5 53 216 0.3 0.6 1022.7 0.0000 0.0000
16:34 5.9 -2.4 54 0 0.6 1022.7 0.0000 0.0000
16:45 5.9 -2.4 54 270 0.6 1.7 1022.7 0.0000 0.0000
16:55 5.8 -2.5 54 270 0.3 0.6 1022.7 0.0000 0.0000
17:05 5.8 -2.2 55 240 0.3 0.6 1022.7 0.0000 0.0000
17:15 5.6 -2.4 55 180 0.3 0.6 1022.7 0.0000 0.0000
17:25 5.4 -2.4 56 216 0.3 0.6 1022.7 0.0000 0.0000
17:35 5.2 -2.3 57 231 0.3 0.8 1022.8 0.0000 0.0000
17:45 5 -2.5 57 270 0.3 0.6 1022.9 0.0000 0.0000
17:55 4.8 -2.4 58 165 0.3 0.6 1022.9 0.0000 0.0000
18:05 4.6 -2.6 58 225 0.3 0.6 1023 0.0000 0.0000
18:15 4.5 -2.7 58 231 0.3 0.6 1023.1 0.0000 0.0000
18:25 4.4 -2.8 58 270 0.3 0.8 1023.4 0.0000 0.0000
18:36 4.3 -2.7 59 180 0.3 0.6 1023.4 0.0000 0.0000
18:45 4.2 -2.7 59 270 0.3 0.6 1023.4 0.0000 0.0000
18:55 4 -2.7 60 233 0.3 0.6 1023.5 0.0000 0.0000
19:06 3.9 -2.8 60 201 0.3 0.8 1023.5 0.0000 0.0000
19:16 3.8 -2.9 60 234 0.3 0.6 1023.6 0.0000 0.0000
19:25 3.7 -2.8 61 198 0.3 0.6 1023.6 0.0000 0.0000
19:36 3.5 -2.9 61 215 0.3 0.8 1023.6 0.0000 0.0000
19:46 3.4 -2.8 62 270 0.3 0.6 1023.8 0.0000 0.0000
19:56 3.4 -2.8 62 270 0.3 0.6 1023.8 0.0000 0.0000
20:06 3.4 -2.8 62 231 0.3 0.6 1024 0.0000 0.0000
20:16 3.3 -2.9 62 209 0.3 0.6 1024.1 0.0000 0.0000
20:26 3.2 -3 62 191 0.3 0.6 1024.1 0.0000 0.0000
20:36 3.1 -3.1 62 270 0.3 0.6 1024 0.0000 0.0000
20:46 3.1 -3.1 62 270 0.6 1.4 1024 0.0000 0.0000
20:56 3 -3 63 0 0.6 1024.1 0.0000 0.0000
21:16 2.9 -2.9 64 0 0.6 1024.1 0.0000 0.0000
21:37 2.7 -3 64 270 0.6 1.4 1024.2 0.0000 0.0000
21:46 2.6 -2.9 65 218 0.3 0.6 1024.3 0.0000 0.0000
21:57 2.6 -2.9 65 270 0.3 0.8 1024.3 0.0000 0.0000
22:17 2.6 -2.9 65 219 0.3 0.6 1024.3 0.0000 0.0000
22:26 2.6 -2.9 65 270 0.3 0.8 1024.2 0.0000 0.0000
22:37 2.5 -3 65 237 0.3 0.8 1024.2 0.0000 0.0000
22:47 2.5 -3.2 64 230 0.3 0.6 1024.1 0.0000 0.0000
22:57 2.5 -3.2 64 270 0.6 1.4 1024.2 0.0000 0.0000
23:07 2.5 -3.2 64 270 0.3 1.4 1024.2 0.0000 0.0000
23:17 2.4 -3.3 64 143 0.3 0.6 1024.2 0.0000 0.0000
23:27 2.3 -3.4 64 180 0.3 0.8 1024.2 0.0000 0.0000
23:37 2.2 -3.4 64 233 0.3 0.6 1024.2 0.0000 0.0000
23:48 2.1 -3.5 64 239 0.3 0.6 1024.2 0.0000 0.0000
23:58 2 -3.4 65 240 0.3 0.6 1024.3 0.0000

TAGESSTATISTIK

2020-01-26
TEMPERATUR
MITTEL
2.5
MAXIMUM
6.3
15:35
MINIMUM
0.3
03:50
LUFTDRUCK
MITTEL
1024.1
MAXIMUM
1025.8
00:07
MINIMUM
1022.6
14:44
TAUPUNKT
MITTEL
-3.5
MAXIMUM
-2.2
14:44
MINIMUM
-5.1
03:50
FEUCHTIGKEIT
MITTEL
62
MAXIMUM
68
09:12
MINIMUM
53
15:24
WINDSTÄRKE
MITTEL
0.4
MAXIMUM
1.4
12:53
WINDBÖE
MITTEL
0.8
MAXIMUM
2.2
12:44
WINDRICHTUNG
VORHERRSCHENDE
SW
52.9%
N
0.0
NO
0.0
O
0.0
SO
1.4
S
6.4
SW
52.9
W
36.4
NW
0.0
NIEDERSCHLAG
REGEN STUNDE
0.0
REGEN TAG
0.0
TEMPERATUR (°C)
MINIMUM
0.3
MAXIMUM
6.3
MITTEL
2.5
LUFTDRUCK (hpa)
MINIMUM
1022.6
MAXIMUM
1025.8
MITTEL
1024.1
MESSGERÄT